Date,TemperatureHighF,TemperatureAvgF,TemperatureLowF,DewpointHighF,DewpointAvgF,DewpointLowF,HumidityHigh,HumidityAvg,HumidityLow,PressureMaxIn,PressureMinIn,WindSpeedMaxMPH,WindSpeedAvgMPH,GustSpeedMaxMPH,PrecipitationSumIn
2013-11-1,78.8,65.4,52.5,63.4,53.8,44.0,91,68,46,29.71,29.58,8,2,8,0.00
2013-11-2,69.6,54.9,45.1,51.7,43.4,39.0,91,67,45,30.00,29.71,5,1,5,0.00
2013-11-3,67.3,51.4,40.1,45.6,39.5,35.8,86,65,45,30.18,29.99,5,1,5,0.00
2013-11-4,71.6,56.6,40.1,46.8,41.3,34.5,85,58,40,30.30,30.18,6,2,11,0.00
2013-11-5,67.5,55.0,44.4,45.4,40.8,35.8,73,60,44,30.33,30.18,2,0,5,0.00
2013-11-6,75.0,60.7,49.6,57.8,50.1,37.4,88,69,55,30.19,29.95,6,1,11,0.00
2013-11-7,65.3,54.2,43.7,58.3,43.4,31.4,92,68,43,30.17,29.91,6,2,12,0.02
2013-11-8,65.5,47.1,35.4,36.9,30.9,26.3,75,55,30,30.27,30.15,4,1,9,0.00
2013-11-9,61.3,46.0,33.3,40.6,34.5,27.2,86,65,44,30.22,30.11,5,1,8,0.00
2013-11-10,77.2,55.9,42.3,52.3,40.2,31.8,81,58,30,30.20,30.10,4,1,11,0.00
2013-11-11,72.5,53.6,39.0,40.2,34.5,28.4,66,50,28,30.21,30.04,3,1,6,0.00
2013-11-12,53.4,44.1,31.3,40.9,30.0,16.3,71,58,46,30.42,30.03,6,2,19,0.00
2013-11-13,55.8,38.6,28.0,25.3,20.8,16.2,66,50,29,30.51,30.35,5,1,11,0.00
2013-11-14,63.3,41.0,24.1,31.7,22.6,16.1,75,51,23,30.37,30.16,4,0,7,0.00
2013-11-15,52.0,44.1,36.3,42.2,34.5,22.1,93,70,54,30.17,30.04,0,0,3,0.32
2013-11-16,58.6,50.0,43.9,53.8,47.1,42.0,95,90,81,30.11,30.00,2,0,8,0.01
2013-11-17,66.6,61.6,58.3,64.6,57.9,52.5,95,88,79,30.00,29.75,3,0,8,0.97
2013-11-18,74.3,60.1,46.0,65.3,43.8,33.7,95,57,33,30.05,29.78,7,2,18,0.17
2013-11-19,61.5,47.9,39.7,35.4,31.3,27.2,65,53,31,30.11,30.01,6,2,11,0.00
2013-11-20,65.5,48.7,34.5,39.2,33.8,26.4,76,58,36,30.19,30.06,4,1,8,0.00
2013-11-21,65.1,55.5,51.3,49.4,43.3,36.7,75,63,56,30.25,30.14,5,1,8,0.00
2013-11-22,58.6,55.8,53.1,55.0,51.5,48.1,93,85,75,30.21,30.09,3,0,7,0.17
2013-11-23,56.7,47.5,33.6,48.4,37.8,20.5,83,69,53,30.29,30.10,4,2,10,0.01
2013-11-24,46.0,32.9,24.1,21.3,15.0,8.5,64,49,28,30.44,30.28,6,3,13,0.00
2013-11-25,43.7,35.1,27.9,29.7,19.6,12.3,86,55,30,30.35,30.09,5,1,7,0.40
2013-11-26,43.5,37.7,33.3,42.7,35.9,29.7,99,93,84,30.09,29.65,4,1,9,2.54
2013-11-27,38.5,32.6,24.1,33.7,22.1,13.4,85,65,53,30.26,29.72,6,2,13,0.01
2013-11-28,51.1,32.6,19.2,30.5,20.4,11.1,76,61,45,30.44,30.25,4,1,7,0.00
2013-11-29,59.4,39.3,25.9,33.8,25.6,18.7,82,60,36,30.53,30.42,4,1,8,0.00
2013-11-30,59.7,42.4,30.0,35.8,28.9,23.3,85,61,37,30.50,30.19,5,1,8,0.00